sensor_id;sensor_type;location;lat;lon;timestamp;pressure;altitude;pressure_sealevel;temperature;humidity
56568;BME280;42456;49.956;20.004;2022-07-29T00:01:26;98623.08;;;14.69;75.34
56568;BME280;42456;49.956;20.004;2022-07-29T00:03:53;98625.31;;;14.73;75.42
56568;BME280;42456;49.956;20.004;2022-07-29T00:06:19;98624.16;;;14.74;75.49
56568;BME280;42456;49.956;20.004;2022-07-29T00:08:46;98612.22;;;14.75;75.52
56568;BME280;42456;49.956;20.004;2022-07-29T00:11:12;98609.94;;;14.77;75.66
56568;BME280;42456;49.956;20.004;2022-07-29T00:13:39;98614.45;;;14.79;75.78
56568;BME280;42456;49.956;20.004;2022-07-29T00:16:05;98617.36;;;14.80;75.84
56568;BME280;42456;49.956;20.004;2022-07-29T00:18:31;98615.66;;;14.82;75.95
56568;BME280;42456;49.956;20.004;2022-07-29T00:20:58;98613.41;;;14.84;76.09
56568;BME280;42456;49.956;20.004;2022-07-29T00:23:24;98617.33;;;14.86;76.13
56568;BME280;42456;49.956;20.004;2022-07-29T00:25:50;98620.27;;;14.87;76.05
56568;BME280;42456;49.956;20.004;2022-07-29T00:28:16;98623.75;;;14.88;76.11
56568;BME280;42456;49.956;20.004;2022-07-29T00:30:43;98622.98;;;14.87;76.18
56568;BME280;42456;49.956;20.004;2022-07-29T00:33:09;98621.04;;;14.88;76.28
56568;BME280;42456;49.956;20.004;2022-07-29T00:35:36;98621.28;;;14.89;76.36
56568;BME280;42456;49.956;20.004;2022-07-29T00:38:14;98616.42;;;14.88;76.37
56568;BME280;42456;49.956;20.004;2022-07-29T00:40:42;98615.06;;;14.88;76.51
56568;BME280;42456;49.956;20.004;2022-07-29T00:43:11;98610.45;;;14.89;76.62
56568;BME280;42456;49.956;20.004;2022-07-29T00:45:39;98605.80;;;14.89;76.78
56568;BME280;42456;49.956;20.004;2022-07-29T00:48:06;98612.01;;;14.90;76.85
56568;BME280;42456;49.956;20.004;2022-07-29T00:50:34;98607.60;;;14.91;76.93
56568;BME280;42456;49.956;20.004;2022-07-29T00:53:03;98616.94;;;14.94;77.02
56568;BME280;42456;49.956;20.004;2022-07-29T00:55:30;98609.61;;;14.94;76.98
56568;BME280;42456;49.956;20.004;2022-07-29T00:57:57;98608.12;;;14.97;77.05
56568;BME280;42456;49.956;20.004;2022-07-29T01:00:26;98609.47;;;14.97;77.00
56568;BME280;42456;49.956;20.004;2022-07-29T01:02:53;98604.05;;;14.97;76.97
56568;BME280;42456;49.956;20.004;2022-07-29T01:05:21;98606.77;;;14.97;77.02
56568;BME280;42456;49.956;20.004;2022-07-29T01:07:49;98601.59;;;14.98;77.11
56568;BME280;42456;49.956;20.004;2022-07-29T01:10:19;98610.02;;;15.02;77.19
56568;BME280;42456;49.956;20.004;2022-07-29T01:12:48;98615.61;;;15.09;77.02
56568;BME280;42456;49.956;20.004;2022-07-29T01:15:16;98615.61;;;15.09;77.02
56568;BME280;42456;49.956;20.004;2022-07-29T01:17:45;98616.47;;;15.13;76.94
56568;BME280;42456;49.956;20.004;2022-07-29T01:20:36;98609.94;;;15.15;76.82
56568;BME280;42456;49.956;20.004;2022-07-29T01:23:25;98604.94;;;15.17;76.79
56568;BME280;42456;49.956;20.004;2022-07-29T01:31:35;98586.86;;;15.21;76.60
56568;BME280;42456;49.956;20.004;2022-07-29T01:34:05;98593.48;;;15.23;76.44
56568;BME280;42456;49.956;20.004;2022-07-29T01:36:43;98596.30;;;15.27;76.30
56568;BME280;42456;49.956;20.004;2022-07-29T01:39:31;98591.17;;;15.31;76.13
56568;BME280;42456;49.956;20.004;2022-07-29T01:42:05;98593.30;;;15.32;75.87
56568;BME280;42456;49.956;20.004;2022-07-29T01:47:38;98591.94;;;15.32;75.96
56568;BME280;42456;49.956;20.004;2022-07-29T01:50:10;98591.17;;;15.31;75.87
56568;BME280;42456;49.956;20.004;2022-07-29T01:52:47;98591.73;;;15.31;75.66
56568;BME280;42456;49.956;20.004;2022-07-29T01:55:16;98592.53;;;15.31;75.60
56568;BME280;42456;49.956;20.004;2022-07-29T01:57:46;98592.53;;;15.31;75.81
56568;BME280;42456;49.956;20.004;2022-07-29T02:00:14;98596.36;;;15.30;75.92
56568;BME280;42456;49.956;20.004;2022-07-29T02:02:44;98596.59;;;15.31;75.98
56568;BME280;42456;49.956;20.004;2022-07-29T02:05:15;98596.01;;;15.32;75.94
56568;BME280;42456;49.956;20.004;2022-07-29T02:07:43;98594.66;;;15.32;75.97
56568;BME280;42456;49.956;20.004;2022-07-29T02:10:12;98592.53;;;15.31;75.89
56568;BME280;42456;49.956;20.004;2022-07-29T02:12:39;98600.42;;;15.30;75.93
56568;BME280;42456;49.956;20.004;2022-07-29T02:15:07;98589.59;;;15.30;75.92
56568;BME280;42456;49.956;20.004;2022-07-29T02:17:41;98588.47;;;15.31;75.96
56568;BME280;42456;49.956;20.004;2022-07-29T02:20:09;98589.38;;;15.29;76.06
56568;BME280;42456;49.956;20.004;2022-07-29T02:22:38;98579.09;;;15.29;76.11
56568;BME280;42456;49.956;20.004;2022-07-29T02:25:07;98582.60;;;15.29;75.99
56568;BME280;42456;49.956;20.004;2022-07-29T02:27:34;98582.05;;;15.30;76.01
56568;BME280;42456;49.956;20.004;2022-07-29T02:30:03;98573.33;;;15.30;75.73
56568;BME280;42456;49.956;20.004;2022-07-29T02:32:31;98569.26;;;15.30;75.74
56568;BME280;42456;49.956;20.004;2022-07-29T02:35:01;98574.47;;;15.29;75.85
56568;BME280;42456;49.956;20.004;2022-07-29T02:37:29;98569.41;;;15.28;75.80
56568;BME280;42456;49.956;20.004;2022-07-29T02:39:57;98565.48;;;15.25;75.76
56568;BME280;42456;49.956;20.004;2022-07-29T02:42:26;98557.61;;;15.20;75.85
56568;BME280;42456;49.956;20.004;2022-07-29T02:44:53;98561.23;;;15.18;75.83
56568;BME280;42456;49.956;20.004;2022-07-29T02:47:38;98555.95;;;15.16;75.95
56568;BME280;42456;49.956;20.004;2022-07-29T02:50:15;98552.24;;;15.14;75.93
56568;BME280;42456;49.956;20.004;2022-07-29T02:55:34;98550.38;;;15.08;75.93
56568;BME280;42456;49.956;20.004;2022-07-29T03:00:55;98552.14;;;15.01;75.88
56568;BME280;42456;49.956;20.004;2022-07-29T03:03:25;98553.39;;;14.97;75.90
56568;BME280;42456;49.956;20.004;2022-07-29T03:05:55;98553.09;;;14.93;75.77
56568;BME280;42456;49.956;20.004;2022-07-29T03:08:23;98552.98;;;14.89;75.78
56568;BME280;42456;49.956;20.004;2022-07-29T03:10:51;98551.33;;;14.85;75.81
56568;BME280;42456;49.956;20.004;2022-07-29T03:13:19;98551.47;;;14.82;75.80
56568;BME280;42456;49.956;20.004;2022-07-29T03:15:47;98543.25;;;14.79;75.88
56568;BME280;42456;49.956;20.004;2022-07-29T03:18:14;98547.10;;;14.78;75.88
56568;BME280;42456;49.956;20.004;2022-07-29T03:20:42;98546.09;;;14.76;75.87
56568;BME280;42456;49.956;20.004;2022-07-29T03:23:08;98556.72;;;14.75;75.84
56568;BME280;42456;49.956;20.004;2022-07-29T03:25:35;98559.77;;;14.74;75.86
56568;BME280;42456;49.956;20.004;2022-07-29T03:28:02;98558.18;;;14.73;75.87
56568;BME280;42456;49.956;20.004;2022-07-29T03:30:29;98557.77;;;14.71;75.83
56568;BME280;42456;49.956;20.004;2022-07-29T03:32:56;98552.34;;;14.71;75.83
56568;BME280;42456;49.956;20.004;2022-07-29T03:35:22;98553.46;;;14.70;75.83
56568;BME280;42456;49.956;20.004;2022-07-29T03:37:49;98554.27;;;14.70;75.76
56568;BME280;42456;49.956;20.004;2022-07-29T03:40:22;98548.64;;;14.69;75.73
56568;BME280;42456;49.956;20.004;2022-07-29T03:42:51;98551.10;;;14.68;75.79
56568;BME280;42456;49.956;20.004;2022-07-29T03:45:21;98550.20;;;14.70;75.84
56568;BME280;42456;49.956;20.004;2022-07-29T03:47:50;98551.55;;;14.70;75.88
56568;BME280;42456;49.956;20.004;2022-07-29T03:50:20;98549.50;;;14.73;75.88
56568;BME280;42456;49.956;20.004;2022-07-29T03:52:47;98548.80;;;14.76;75.91
56568;BME280;42456;49.956;20.004;2022-07-29T03:55:15;98557.58;;;14.79;75.79
56568;BME280;42456;49.956;20.004;2022-07-29T03:57:42;98556.75;;;14.85;75.70
56568;BME280;42456;49.956;20.004;2022-07-29T04:00:10;98558.64;;;14.90;75.72
56568;BME280;42456;49.956;20.004;2022-07-29T04:02:38;98563.42;;;14.97;75.67
56568;BME280;42456;49.956;20.004;2022-07-29T04:05:05;98568.69;;;15.05;75.66
56568;BME280;42456;49.956;20.004;2022-07-29T04:07:31;98568.50;;;15.14;75.62
56568;BME280;42456;49.956;20.004;2022-07-29T04:09:57;98572.02;;;15.24;75.57
56568;BME280;42456;49.956;20.004;2022-07-29T04:12:24;98571.27;;;15.33;75.47
56568;BME280;42456;49.956;20.004;2022-07-29T04:14:50;98580.03;;;15.42;75.40
56568;BME280;42456;49.956;20.004;2022-07-29T04:17:16;98574.41;;;15.51;75.10
56568;BME280;42456;49.956;20.004;2022-07-29T04:19:42;98582.77;;;15.61;74.96
56568;BME280;42456;49.956;20.004;2022-07-29T04:22:09;98580.66;;;15.70;74.82
56568;BME280;42456;49.956;20.004;2022-07-29T04:24:35;98579.17;;;15.82;74.40
56568;BME280;42456;49.956;20.004;2022-07-29T04:27:01;98572.05;;;15.93;74.00
56568;BME280;42456;49.956;20.004;2022-07-29T04:29:28;98573.98;;;16.02;73.73
56568;BME280;42456;49.956;20.004;2022-07-29T04:31:54;98575.72;;;16.10;73.33
56568;BME280;42456;49.956;20.004;2022-07-29T04:34:20;98581.07;;;16.16;72.89
56568;BME280;42456;49.956;20.004;2022-07-29T04:36:46;98581.77;;;16.23;72.46
56568;BME280;42456;49.956;20.004;2022-07-29T04:39:13;98572.19;;;16.29;72.32
56568;BME280;42456;49.956;20.004;2022-07-29T04:41:39;98559.41;;;16.39;72.21
56568;BME280;42456;49.956;20.004;2022-07-29T04:44:05;98562.41;;;16.53;72.08
56568;BME280;42456;49.956;20.004;2022-07-29T04:46:32;98558.03;;;16.67;71.60
56568;BME280;42456;49.956;20.004;2022-07-29T04:48:58;98562.20;;;16.84;71.24
56568;BME280;42456;49.956;20.004;2022-07-29T04:51:24;98565.41;;;17.03;70.93
56568;BME280;42456;49.956;20.004;2022-07-29T04:53:50;98567.44;;;17.19;70.16
56568;BME280;42456;49.956;20.004;2022-07-29T04:56:17;98565.52;;;17.32;69.92
56568;BME280;42456;49.956;20.004;2022-07-29T04:58:43;98561.92;;;17.51;69.35
56568;BME280;42456;49.956;20.004;2022-07-29T05:01:09;98554.97;;;17.66;69.03
56568;BME280;42456;49.956;20.004;2022-07-29T05:03:35;98559.08;;;17.83;68.26
56568;BME280;42456;49.956;20.004;2022-07-29T05:06:02;98557.51;;;17.98;67.96
56568;BME280;42456;49.956;20.004;2022-07-29T05:08:28;98555.96;;;18.14;67.56
56568;BME280;42456;49.956;20.004;2022-07-29T05:10:54;98555.39;;;18.31;66.77
56568;BME280;42456;49.956;20.004;2022-07-29T05:13:21;98562.78;;;18.47;66.07
56568;BME280;42456;49.956;20.004;2022-07-29T05:15:47;98549.71;;;18.63;65.96
56568;BME280;42456;49.956;20.004;2022-07-29T05:18:13;98553.20;;;18.80;65.39
56568;BME280;42456;49.956;20.004;2022-07-29T05:20:39;98554.93;;;18.99;65.46
56568;BME280;42456;49.956;20.004;2022-07-29T05:23:06;98555.48;;;19.18;64.33
56568;BME280;42456;49.956;20.004;2022-07-29T05:25:32;98552.67;;;19.31;64.05
56568;BME280;42456;49.956;20.004;2022-07-29T05:27:58;98553.77;;;19.47;63.52
56568;BME280;42456;49.956;20.004;2022-07-29T05:30:25;98556.59;;;19.64;62.92
56568;BME280;42456;49.956;20.004;2022-07-29T05:32:51;98553.95;;;19.78;62.77
56568;BME280;42456;49.956;20.004;2022-07-29T05:35:18;98548.55;;;19.92;61.97
56568;BME280;42456;49.956;20.004;2022-07-29T05:37:44;98551.22;;;20.12;62.29
56568;BME280;42456;49.956;20.004;2022-07-29T05:40:10;98554.20;;;20.34;61.58
56568;BME280;42456;49.956;20.004;2022-07-29T05:42:37;98546.25;;;20.57;61.31
56568;BME280;42456;49.956;20.004;2022-07-29T05:45:04;98550.42;;;20.85;60.77
56568;BME280;42456;49.956;20.004;2022-07-29T05:47:30;98556.50;;;21.12;60.01
56568;BME280;42456;49.956;20.004;2022-07-29T05:49:57;98560.02;;;21.37;58.91
56568;BME280;42456;49.956;20.004;2022-07-29T05:52:23;98548.66;;;21.56;58.43
56568;BME280;42456;49.956;20.004;2022-07-29T05:54:49;98554.87;;;21.81;57.94
56568;BME280;42456;49.956;20.004;2022-07-29T05:57:24;98552.27;;;22.03;57.11
56568;BME280;42456;49.956;20.004;2022-07-29T05:59:49;98555.90;;;22.26;56.08
56568;BME280;42456;49.956;20.004;2022-07-29T06:02:17;98551.68;;;22.47;56.11
56568;BME280;42456;49.956;20.004;2022-07-29T06:04:43;98563.86;;;22.79;55.02
56568;BME280;42456;49.956;20.004;2022-07-29T06:07:09;98557.17;;;23.09;54.68
56568;BME280;42456;49.956;20.004;2022-07-29T06:09:36;98559.30;;;23.38;54.08
56568;BME280;42456;49.956;20.004;2022-07-29T06:12:03;98548.58;;;23.69;52.93
56568;BME280;42456;49.956;20.004;2022-07-29T06:14:30;98558.43;;;24.04;52.21
56568;BME280;42456;49.956;20.004;2022-07-29T06:16:56;98552.64;;;24.44;51.40
56568;BME280;42456;49.956;20.004;2022-07-29T06:19:22;98563.50;;;25.07;50.19
56568;BME280;42456;49.956;20.004;2022-07-29T06:21:48;98555.42;;;25.97;47.57
56568;BME280;42456;49.956;20.004;2022-07-29T06:24:15;98563.98;;;27.21;46.40
56568;BME280;42456;49.956;20.004;2022-07-29T06:26:42;98553.99;;;28.70;45.27
56568;BME280;42456;49.956;20.004;2022-07-29T06:29:09;98559.48;;;30.18;42.80
56568;BME280;42456;49.956;20.004;2022-07-29T06:31:38;98561.48;;;31.35;40.87
56568;BME280;42456;49.956;20.004;2022-07-29T06:34:05;98562.61;;;32.28;38.89
56568;BME280;42456;49.956;20.004;2022-07-29T06:36:36;98568.67;;;32.95;37.05
56568;BME280;42456;49.956;20.004;2022-07-29T06:39:05;98567.03;;;33.40;36.10
56568;BME280;42456;49.956;20.004;2022-07-29T06:41:32;98568.03;;;33.28;35.26
56568;BME280;42456;49.956;20.004;2022-07-29T06:43:58;98560.92;;;32.44;35.36
56568;BME280;42456;49.956;20.004;2022-07-29T06:46:24;98575.56;;;31.50;35.87
56568;BME280;42456;49.956;20.004;2022-07-29T06:48:51;98572.42;;;30.33;35.75
56568;BME280;42456;49.956;20.004;2022-07-29T06:51:18;98575.44;;;29.41;37.68
56568;BME280;42456;49.956;20.004;2022-07-29T06:53:44;98576.83;;;28.66;38.72
56568;BME280;42456;49.956;20.004;2022-07-29T06:56:10;98577.58;;;27.92;39.41
56568;BME280;42456;49.956;20.004;2022-07-29T06:58:38;98567.10;;;27.31;40.72
56568;BME280;42456;49.956;20.004;2022-07-29T07:01:06;98566.47;;;26.91;41.82
56568;BME280;42456;49.956;20.004;2022-07-29T07:03:32;98567.92;;;26.52;42.32
56568;BME280;42456;49.956;20.004;2022-07-29T07:05:59;98573.91;;;26.20;43.19
56568;BME280;42456;49.956;20.004;2022-07-29T07:08:25;98570.51;;;25.81;43.60
56568;BME280;42456;49.956;20.004;2022-07-29T07:10:52;98557.68;;;25.51;44.30
56568;BME280;42456;49.956;20.004;2022-07-29T07:13:19;98574.83;;;25.24;44.63
56568;BME280;42456;49.956;20.004;2022-07-29T07:15:46;98559.91;;;24.99;45.65
56568;BME280;42456;49.956;20.004;2022-07-29T07:18:14;98552.06;;;24.86;46.12
56568;BME280;42456;49.956;20.004;2022-07-29T07:20:41;98555.39;;;24.74;46.49
56568;BME280;42456;49.956;20.004;2022-07-29T07:23:08;98558.06;;;24.62;46.86
56568;BME280;42456;49.956;20.004;2022-07-29T07:25:34;98560.09;;;24.58;47.47
56568;BME280;42456;49.956;20.004;2022-07-29T07:28:00;98562.61;;;24.46;47.28
56568;BME280;42456;49.956;20.004;2022-07-29T07:30:27;98566.80;;;24.27;47.77
56568;BME280;42456;49.956;20.004;2022-07-29T07:32:54;98562.56;;;24.19;48.62
56568;BME280;42456;49.956;20.004;2022-07-29T07:35:21;98559.44;;;24.17;48.79
56568;BME280;42456;49.956;20.004;2022-07-29T07:37:47;98565.00;;;24.14;49.23
56568;BME280;42456;49.956;20.004;2022-07-29T07:40:14;98560.73;;;24.09;49.25
56568;BME280;42456;49.956;20.004;2022-07-29T07:42:40;98558.05;;;24.02;49.48
56568;BME280;42456;49.956;20.004;2022-07-29T07:45:08;98563.28;;;24.08;50.20
56568;BME280;42456;49.956;20.004;2022-07-29T07:47:36;98563.94;;;24.19;50.09
56568;BME280;42456;49.956;20.004;2022-07-29T07:50:05;98564.66;;;24.23;50.00
56568;BME280;42456;49.956;20.004;2022-07-29T07:52:32;98569.75;;;24.25;49.90
56568;BME280;42456;49.956;20.004;2022-07-29T07:54:59;98565.87;;;24.22;49.95
56568;BME280;42456;49.956;20.004;2022-07-29T07:57:26;98564.25;;;24.25;49.99
56568;BME280;42456;49.956;20.004;2022-07-29T07:59:52;98563.44;;;24.28;50.03
56568;BME280;42456;49.956;20.004;2022-07-29T08:02:19;98557.03;;;24.23;50.18
56568;BME280;42456;49.956;20.004;2022-07-29T08:04:45;98558.41;;;24.23;50.59
56568;BME280;42456;49.956;20.004;2022-07-29T08:07:11;98555.28;;;24.21;50.68
56568;BME280;42456;49.956;20.004;2022-07-29T08:09:39;98548.66;;;24.18;51.06
56568;BME280;42456;49.956;20.004;2022-07-29T08:12:06;98547.41;;;24.23;51.32
56568;BME280;42456;49.956;20.004;2022-07-29T08:14:33;98557.94;;;24.28;50.69
56568;BME280;42456;49.956;20.004;2022-07-29T08:16:59;98558.34;;;24.26;51.63
56568;BME280;42456;49.956;20.004;2022-07-29T08:19:25;98564.59;;;24.30;51.58
56568;BME280;42456;49.956;20.004;2022-07-29T08:21:52;98562.40;;;24.33;50.91
56568;BME280;42456;49.956;20.004;2022-07-29T08:24:19;98558.27;;;24.33;51.01
56568;BME280;42456;49.956;20.004;2022-07-29T08:26:59;98558.14;;;24.44;51.52
56568;BME280;42456;49.956;20.004;2022-07-29T08:29:26;98567.41;;;24.53;51.21
56568;BME280;42456;49.956;20.004;2022-07-29T08:31:52;98558.58;;;24.54;50.92
56568;BME280;42456;49.956;20.004;2022-07-29T08:34:18;98568.37;;;24.55;50.73
56568;BME280;42456;49.956;20.004;2022-07-29T08:36:44;98562.74;;;24.50;50.87
56568;BME280;42456;49.956;20.004;2022-07-29T08:39:11;98556.42;;;24.53;50.72
56568;BME280;42456;49.956;20.004;2022-07-29T08:41:37;98552.91;;;24.53;50.83
56568;BME280;42456;49.956;20.004;2022-07-29T08:44:03;98549.12;;;24.55;50.66
56568;BME280;42456;49.956;20.004;2022-07-29T08:46:30;98550.70;;;24.56;50.62
56568;BME280;42456;49.956;20.004;2022-07-29T08:48:56;98561.42;;;24.62;51.71
56568;BME280;42456;49.956;20.004;2022-07-29T08:51:24;98554.88;;;24.67;51.26
56568;BME280;42456;49.956;20.004;2022-07-29T08:53:51;98552.44;;;24.73;51.11
56568;BME280;42456;49.956;20.004;2022-07-29T08:56:19;98559.16;;;24.83;51.63
56568;BME280;42456;49.956;20.004;2022-07-29T08:58:46;98560.03;;;24.92;51.24
56568;BME280;42456;49.956;20.004;2022-07-29T09:01:21;98561.99;;;24.91;50.59
56568;BME280;42456;49.956;20.004;2022-07-29T09:03:49;98560.45;;;24.90;50.11
56568;BME280;42456;49.956;20.004;2022-07-29T09:06:18;98557.91;;;24.88;50.54
56568;BME280;42456;49.956;20.004;2022-07-29T09:08:46;98564.78;;;24.88;50.50
56568;BME280;42456;49.956;20.004;2022-07-29T09:11:14;98544.81;;;24.84;50.74
56568;BME280;42456;49.956;20.004;2022-07-29T09:13:41;98554.94;;;24.90;50.94
56568;BME280;42456;49.956;20.004;2022-07-29T09:16:07;98548.82;;;24.91;50.38
56568;BME280;42456;49.956;20.004;2022-07-29T09:18:42;98547.94;;;24.97;51.43
56568;BME280;42456;49.956;20.004;2022-07-29T09:21:14;98561.04;;;25.01;50.44
56568;BME280;42456;49.956;20.004;2022-07-29T09:24:10;98569.54;;;24.99;50.33
56568;BME280;42456;49.956;20.004;2022-07-29T09:26:42;98559.61;;;24.93;50.26
56568;BME280;42456;49.956;20.004;2022-07-29T09:29:18;98550.48;;;24.85;50.38
56568;BME280;42456;49.956;20.004;2022-07-29T09:31:50;98543.27;;;24.83;50.91
56568;BME280;42456;49.956;20.004;2022-07-29T09:34:23;98534.72;;;24.89;51.63
56568;BME280;42456;49.956;20.004;2022-07-29T09:36:52;98540.05;;;24.99;51.30
56568;BME280;42456;49.956;20.004;2022-07-29T09:39:30;98543.48;;;25.07;51.17
56568;BME280;42456;49.956;20.004;2022-07-29T09:42:06;98541.80;;;25.13;50.65
56568;BME280;42456;49.956;20.004;2022-07-29T09:44:48;98537.06;;;25.13;50.46
56568;BME280;42456;49.956;20.004;2022-07-29T09:47:17;98532.71;;;25.16;51.19
56568;BME280;42456;49.956;20.004;2022-07-29T09:49:58;98525.33;;;25.21;50.50
56568;BME280;42456;49.956;20.004;2022-07-29T09:52:27;98527.03;;;25.26;50.45
56568;BME280;42456;49.956;20.004;2022-07-29T09:55:05;98528.98;;;25.26;50.60
56568;BME280;42456;49.956;20.004;2022-07-29T09:57:32;98510.73;;;25.24;50.10
56568;BME280;42456;49.956;20.004;2022-07-29T10:00:03;98520.36;;;25.24;50.75
56568;BME280;42456;49.956;20.004;2022-07-29T10:02:33;98510.98;;;25.21;50.44
56568;BME280;42456;49.956;20.004;2022-07-29T10:05:03;98513.01;;;25.29;50.77
56568;BME280;42456;49.956;20.004;2022-07-29T10:07:49;98513.95;;;25.34;50.99
56568;BME280;42456;49.956;20.004;2022-07-29T10:10:26;98519.03;;;25.35;50.50
56568;BME280;42456;49.956;20.004;2022-07-29T10:12:55;98506.92;;;25.41;50.22
56568;BME280;42456;49.956;20.004;2022-07-29T10:15:27;98504.23;;;25.49;50.38
56568;BME280;42456;49.956;20.004;2022-07-29T10:17:55;98505.52;;;25.64;51.02
56568;BME280;42456;49.956;20.004;2022-07-29T10:20:23;98507.50;;;25.71;50.24
56568;BME280;42456;49.956;20.004;2022-07-29T10:22:51;98504.95;;;25.72;49.38
56568;BME280;42456;49.956;20.004;2022-07-29T10:25:18;98492.30;;;25.75;49.54
56568;BME280;42456;49.956;20.004;2022-07-29T10:27:46;98497.86;;;25.83;49.93
56568;BME280;42456;49.956;20.004;2022-07-29T10:30:14;98497.17;;;25.87;49.03
56568;BME280;42456;49.956;20.004;2022-07-29T10:32:54;98500.45;;;25.90;49.59
56568;BME280;42456;49.956;20.004;2022-07-29T10:44:05;98496.39;;;25.98;48.82
56568;BME280;42456;49.956;20.004;2022-07-29T10:46:37;98483.90;;;26.02;49.41
56568;BME280;42456;49.956;20.004;2022-07-29T10:49:12;98494.07;;;26.05;49.18
56568;BME280;42456;49.956;20.004;2022-07-29T10:52:03;98501.06;;;26.01;48.59
56568;BME280;42456;49.956;20.004;2022-07-29T10:54:42;98481.10;;;25.94;48.43
56568;BME280;42456;49.956;20.004;2022-07-29T11:02:51;98474.70;;;25.89;48.74
56568;BME280;42456;49.956;20.004;2022-07-29T11:05:20;98470.14;;;25.90;48.63
56568;BME280;42456;49.956;20.004;2022-07-29T11:10:45;98469.89;;;26.04;49.47
56568;BME280;42456;49.956;20.004;2022-07-29T11:13:12;98474.22;;;26.21;49.76
56568;BME280;42456;49.956;20.004;2022-07-29T11:15:53;98473.20;;;26.23;47.95
56568;BME280;42456;49.956;20.004;2022-07-29T11:18:24;98473.37;;;26.24;48.05
56568;BME280;42456;49.956;20.004;2022-07-29T11:20:51;98487.68;;;26.27;48.12
56568;BME280;42456;49.956;20.004;2022-07-29T11:23:23;98467.52;;;26.30;48.14
56568;BME280;42456;49.956;20.004;2022-07-29T11:28:57;98469.72;;;26.39;48.21
56568;BME280;42456;49.956;20.004;2022-07-29T11:34:25;98470.72;;;26.64;47.93
56568;BME280;42456;49.956;20.004;2022-07-29T11:47:26;98457.64;;;27.37;46.36
56568;BME280;42456;49.956;20.004;2022-07-29T11:49:55;98452.98;;;27.42;45.83
56568;BME280;42456;49.956;20.004;2022-07-29T11:52:40;98441.84;;;27.45;45.98
56568;BME280;42456;49.956;20.004;2022-07-29T11:55:06;98438.06;;;27.39;45.72
56568;BME280;42456;49.956;20.004;2022-07-29T11:57:34;98436.69;;;27.31;45.69
56568;BME280;42456;49.956;20.004;2022-07-29T12:00:02;98436.97;;;27.29;46.27
56568;BME280;42456;49.956;20.004;2022-07-29T12:02:42;98437.21;;;27.26;46.09
56568;BME280;42456;49.956;20.004;2022-07-29T12:05:09;98455.84;;;27.22;46.39
56568;BME280;42456;49.956;20.004;2022-07-29T12:07:39;98430.41;;;27.15;46.04
56568;BME280;42456;49.956;20.004;2022-07-29T12:10:07;98434.47;;;27.10;46.44
56568;BME280;42456;49.956;20.004;2022-07-29T12:12:34;98431.70;;;27.10;46.18
56568;BME280;42456;49.956;20.004;2022-07-29T12:15:16;98430.41;;;27.07;45.64
56568;BME280;42456;49.956;20.004;2022-07-29T12:17:45;98439.98;;;27.02;46.03
56568;BME280;42456;49.956;20.004;2022-07-29T12:20:12;98429.81;;;26.99;46.14
56568;BME280;42456;49.956;20.004;2022-07-29T12:22:40;98429.14;;;27.03;46.85
56568;BME280;42456;49.956;20.004;2022-07-29T12:25:11;98439.71;;;27.13;47.60
56568;BME280;42456;49.956;20.004;2022-07-29T12:27:40;98439.55;;;27.20;46.53
56568;BME280;42456;49.956;20.004;2022-07-29T12:30:09;98421.92;;;27.22;45.96
56568;BME280;42456;49.956;20.004;2022-07-29T12:32:39;98419.59;;;27.20;45.45
56568;BME280;42456;49.956;20.004;2022-07-29T12:35:11;98418.84;;;27.20;45.98
56568;BME280;42456;49.956;20.004;2022-07-29T12:37:41;98422.98;;;27.20;45.91
56568;BME280;42456;49.956;20.004;2022-07-29T12:40:11;98412.69;;;27.20;45.98
56568;BME280;42456;49.956;20.004;2022-07-29T12:42:39;98406.06;;;27.18;44.82
56568;BME280;42456;49.956;20.004;2022-07-29T12:45:06;98397.54;;;27.12;43.63
56568;BME280;42456;49.956;20.004;2022-07-29T12:47:33;98398.22;;;27.08;44.38
56568;BME280;42456;49.956;20.004;2022-07-29T12:50:14;98396.68;;;27.07;44.43
56568;BME280;42456;49.956;20.004;2022-07-29T12:52:42;98404.61;;;27.05;44.98
56568;BME280;42456;49.956;20.004;2022-07-29T12:55:08;98396.17;;;27.04;44.74
56568;BME280;42456;49.956;20.004;2022-07-29T12:57:49;98404.61;;;27.05;44.44
56568;BME280;42456;49.956;20.004;2022-07-29T13:00:22;98390.73;;;27.01;44.11
56568;BME280;42456;49.956;20.004;2022-07-29T13:02:56;98394.28;;;26.93;44.51
56568;BME280;42456;49.956;20.004;2022-07-29T13:08:14;98385.17;;;26.80;44.72
56568;BME280;42456;49.956;20.004;2022-07-29T13:10:41;98372.67;;;26.76;45.25
56568;BME280;42456;49.956;20.004;2022-07-29T13:13:09;98369.99;;;26.72;45.18
56568;BME280;42456;49.956;20.004;2022-07-29T13:15:38;98372.75;;;26.72;45.07
56568;BME280;42456;49.956;20.004;2022-07-29T13:21:13;98375.51;;;26.72;45.29
56568;BME280;42456;49.956;20.004;2022-07-29T13:23:41;98379.05;;;26.81;45.46
56568;BME280;42456;49.956;20.004;2022-07-29T13:26:11;98386.44;;;26.92;45.15
56568;BME280;42456;49.956;20.004;2022-07-29T13:28:38;98377.55;;;27.00;44.98
56568;BME280;42456;49.956;20.004;2022-07-29T13:31:04;98375.10;;;27.10;44.96
56568;BME280;42456;49.956;20.004;2022-07-29T13:33:31;98377.30;;;27.23;44.71
56568;BME280;42456;49.956;20.004;2022-07-29T13:35:57;98373.67;;;27.34;44.84
56568;BME280;42456;49.956;20.004;2022-07-29T13:38:23;98362.55;;;27.50;44.56
56568;BME280;42456;49.956;20.004;2022-07-29T13:40:49;98354.36;;;27.68;45.06
56568;BME280;42456;49.956;20.004;2022-07-29T13:43:16;98346.75;;;27.84;44.88
56568;BME280;42456;49.956;20.004;2022-07-29T13:45:42;98343.46;;;28.02;45.10
56568;BME280;42456;49.956;20.004;2022-07-29T13:48:08;98347.77;;;28.15;44.07
56568;BME280;42456;49.956;20.004;2022-07-29T13:50:35;98339.81;;;28.17;43.46
56568;BME280;42456;49.956;20.004;2022-07-29T13:53:01;98344.06;;;28.14;43.19